Time;durP1;ratioP1;P1;durP2;ratioP2;P2;SDS_P1;SDS_P2;PMS_P1;PMS_P2;Temp;Humidity;BMP_temperature;BMP_pressure;BME280_temperature;BME280_humidity;BME280_pressure;Samples;Min_cycle;Max_cycle;Signal;HPM_P1;HPM_P2
2021/03/11 00:00:09;;;;;;;13.02;7.35;;;;;;;6.65;55.24;98410.81;4973399;28;20114;-75
2021/03/11 00:02:34;;;;;;;15.63;8.07;;;;;;;6.69;55.10;98409.44;4973462;28;20058;-73
2021/03/11 00:05:00;;;;;;;17.60;8.30;;;;;;;6.75;55.17;98411.34;4972006;28;20500;-73
2021/03/11 00:07:26;;;;;;;16.58;8.02;;;;;;;6.67;54.88;98403.41;4973264;28;20436;-73
2021/03/11 00:09:51;;;;;;;15.40;7.45;;;;;;;6.75;54.93;98411.34;4975556;28;20026;-73
2021/03/11 00:12:16;;;;;;;14.35;7.35;;;;;;;6.70;54.81;98392.28;4992712;28;20060;-73
2021/03/11 00:14:41;;;;;;;12.85;7.30;;;;;;;6.82;55.27;98403.38;4973686;28;20027;-73
2021/03/11 00:17:07;;;;;;;16.02;7.93;;;;;;;6.74;55.41;98401.63;4972919;28;20480;-73
2021/03/11 00:19:33;;;;;;;11.60;7.40;;;;;;;6.80;55.19;98408.09;4974956;28;20053;-73
2021/03/11 00:21:59;;;;;;;15.13;7.88;;;;;;;6.74;54.96;98396.25;4972744;28;20050;-73
2021/03/11 00:24:25;;;;;;;14.98;7.90;;;;;;;6.78;55.22;98410.16;4971906;28;20361;-73
2021/03/11 00:26:51;;;;;;;15.30;7.93;;;;;;;6.76;55.18;98406.84;4990631;28;20033;-73
2021/03/11 00:29:17;;;;;;;15.73;7.82;;;;;;;6.75;55.05;98400.59;4990364;28;20491;-73
2021/03/11 00:31:42;;;;;;;16.52;8.20;;;;;;;6.74;55.13;98390.88;4976625;28;20381;-73
2021/03/11 00:34:08;;;;;;;15.50;7.72;;;;;;;6.68;55.14;98380.03;4985377;28;20034;-73
2021/03/11 00:36:33;;;;;;;15.50;7.68;;;;;;;6.75;54.77;98389.84;4978377;28;20042;-73
2021/03/11 00:38:58;;;;;;;13.85;7.50;;;;;;;6.85;55.66;98399.47;4974336;28;20070;-73
2021/03/11 00:41:24;;;;;;;16.48;7.70;;;;;;;6.89;55.04;98395.38;4975710;28;20073;-73
2021/03/11 00:43:49;;;;;;;16.45;8.07;;;;;;;6.73;55.73;98383.00;4975759;28;20644;-73
2021/03/11 00:46:15;;;;;;;14.68;8.85;;;;;;;6.80;55.36;98392.81;4974242;28;20029;-73
2021/03/11 00:48:40;;;;;;;12.88;7.60;;;;;;;6.65;55.35;98369.66;4965369;28;20023;-73
2021/03/11 00:51:05;;;;;;;15.60;8.40;;;;;;;6.78;55.90;98391.31;4956943;28;20110;-73
2021/03/11 00:53:30;;;;;;;16.33;8.27;;;;;;;6.71;55.08;98382.38;4963439;28;20027;-73
2021/03/11 00:55:56;;;;;;;15.18;8.30;;;;;;;6.79;55.22;98388.47;4976407;28;20031;-73
2021/03/11 00:58:21;;;;;;;14.60;7.90;;;;;;;6.79;55.20;98377.72;4982517;28;20022;-73
2021/03/11 01:00:46;;;;;;;16.50;7.88;;;;;;;6.79;55.25;98382.25;4969924;28;20042;-73
2021/03/11 01:03:13;;;;;;;14.10;7.43;;;;;;;6.84;55.47;98387.91;4974013;28;20022;-73
2021/03/11 01:05:38;;;;;;;14.93;8.38;;;;;;;6.86;54.86;98366.19;4975291;28;20107;-73
2021/03/11 01:08:04;;;;;;;13.90;7.53;;;;;;;6.78;55.47;98367.97;4979673;28;20117;-73
2021/03/11 01:10:29;;;;;;;15.38;7.85;;;;;;;6.80;55.29;98357.84;4976099;28;20038;-73
2021/03/11 01:12:55;;;;;;;14.15;7.93;;;;;;;6.71;55.97;98350.13;4958195;28;20085;-73
2021/03/11 01:15:20;;;;;;;13.38;7.97;;;;;;;6.84;56.14;98360.16;4957539;28;20023;-73
2021/03/11 01:17:45;;;;;;;15.35;8.48;;;;;;;6.67;56.38;98344.25;4974733;28;20038;-73
2021/03/11 01:20:14;;;;;;;15.68;7.70;;;;;;;6.82;56.12;98354.16;4974770;28;20034;-73
2021/03/11 01:22:40;;;;;;;12.43;7.53;;;;;;;6.80;56.00;98371.28;4974238;28;20058;-73
2021/03/11 01:25:06;;;;;;;16.35;7.95;;;;;;;6.79;56.39;98356.19;4975523;28;20058;-73
2021/03/11 01:27:32;;;;;;;14.30;8.13;;;;;;;6.76;56.32;98353.06;4973669;28;20023;-73
2021/03/11 01:29:57;;;;;;;15.15;7.90;;;;;;;6.67;56.79;98348.81;4974641;28;20539;-73
2021/03/11 01:32:23;;;;;;;17.33;8.88;;;;;;;6.72;56.98;98343.69;4974817;28;20030;-73
2021/03/11 01:34:48;;;;;;;16.63;8.80;;;;;;;6.64;57.05;98349.19;4968603;28;20034;-73
2021/03/11 01:37:13;;;;;;;13.50;7.85;;;;;;;6.49;59.91;98338.47;4974034;28;20054;-73
2021/03/11 01:39:38;;;;;;;15.23;8.23;;;;;;;6.38;60.16;98338.97;4968651;28;20553;-73
2021/03/11 01:42:04;;;;;;;15.15;8.88;;;;;;;6.24;61.29;98330.75;4963372;28;20027;-73
2021/03/11 01:44:29;;;;;;;18.50;8.60;;;;;;;6.27;59.56;98308.03;4968274;28;20018;-73
2021/03/11 01:46:55;;;;;;;16.75;8.93;;;;;;;6.44;58.11;98316.72;4976209;28;20026;-73
2021/03/11 01:49:20;;;;;;;17.15;8.13;;;;;;;6.45;58.86;98318.38;4979211;28;20065;-73
2021/03/11 01:51:46;;;;;;;16.42;8.63;;;;;;;6.47;58.34;98301.06;4960440;28;20466;-73
2021/03/11 01:54:12;;;;;;;14.82;8.48;;;;;;;6.66;57.72;98283.47;4975137;28;20035;-73
2021/03/11 01:56:39;;;;;;;15.07;8.35;;;;;;;6.52;57.81;98276.28;4974026;28;20503;-73
2021/03/11 01:59:04;;;;;;;15.00;8.07;;;;;;;6.57;58.02;98277.38;4967316;28;20033;-73
2021/03/11 02:01:30;;;;;;;16.02;8.55;;;;;;;6.74;57.99;98267.22;4973925;28;20035;-73
2021/03/11 02:03:55;;;;;;;14.27;8.60;;;;;;;6.82;57.30;98254.69;4980500;28;20105;-73
2021/03/11 02:06:20;;;;;;;12.93;6.88;;;;;;;6.86;56.88;98255.94;4975483;28;20061;-73
2021/03/11 02:08:45;;;;;;;17.90;8.07;;;;;;;6.88;57.02;98249.34;4986624;28;20484;-73
2021/03/11 02:11:14;;;;;;;16.55;9.30;;;;;;;6.89;57.45;98242.09;4973449;28;20026;-73
2021/03/11 02:13:46;;;;;;;12.18;7.40;;;;;;;6.85;58.12;98232.78;4975993;28;20042;-73
2021/03/11 02:16:21;;;;;;;10.52;6.15;;;;;;;6.86;57.76;98218.28;4967538;28;20026;-73
2021/03/11 02:18:51;;;;;;;11.05;6.45;;;;;;;6.81;58.11;98202.72;4993920;28;20026;-73
2021/03/11 02:21:31;;;;;;;;;;;;;;;6.97;58.89;98212.41;4955676;28;20073;-73
2021/03/11 02:24:18;;;;;;;9.43;5.32;;;;;;;7.06;58.47;98208.53;4972173;28;19914;-73
2021/03/11 02:26:59;;;;;;;10.63;5.30;;;;;;;6.97;59.01;98191.72;4972586;28;20022;-73
2021/03/11 02:29:31;;;;;;;10.18;5.35;;;;;;;7.05;58.51;98179.13;4974018;28;20113;-73
2021/03/11 02:31:59;;;;;;;13.07;6.15;;;;;;;7.07;58.03;98174.38;4973894;28;20118;-73
2021/03/11 02:34:28;;;;;;;12.88;6.22;;;;;;;7.04;58.20;98162.16;4963243;28;20034;-73
2021/03/11 02:36:56;;;;;;;12.63;6.55;;;;;;;7.15;57.73;98164.34;4970574;28;20023;-73
2021/03/11 02:39:24;;;;;;;10.20;6.03;;;;;;;7.22;56.73;98142.84;4973749;28;20062;-73
2021/03/11 02:41:52;;;;;;;11.88;6.10;;;;;;;7.28;57.27;98143.91;4985924;28;20113;-73
2021/03/11 02:44:20;;;;;;;11.52;5.38;;;;;;;7.40;56.98;98136.94;4967770;28;20026;-74
2021/03/11 02:46:45;;;;;;;9.02;5.00;;;;;;;7.37;57.78;98137.34;4972029;28;20413;-72
2021/03/11 02:49:13;;;;;;;7.30;4.25;;;;;;;7.40;57.93;98136.94;4973977;28;20030;-73
2021/03/11 02:51:38;;;;;;;7.72;4.45;;;;;;;7.35;58.39;98128.63;4981427;28;20037;-73
2021/03/11 02:54:04;;;;;;;11.30;4.25;;;;;;;7.38;58.71;98136.28;4979211;28;20385;-73
2021/03/11 02:56:30;;;;;;;8.48;4.45;;;;;;;7.25;58.70;98107.47;4973845;28;20023;-72
2021/03/11 02:58:57;;;;;;;9.35;4.55;;;;;;;7.30;58.81;98109.56;4985038;28;20730;-73
2021/03/11 03:01:25;;;;;;;8.43;4.25;;;;;;;7.39;58.02;98121.81;4991867;28;20022;-73
2021/03/11 03:03:52;;;;;;;9.65;5.13;;;;;;;7.40;58.17;98120.78;4972919;28;20058;-72
2021/03/11 03:06:18;;;;;;;10.27;4.82;;;;;;;7.31;57.82;98109.38;4973039;28;20105;-72
2021/03/11 03:08:45;;;;;;;9.70;5.45;;;;;;;7.44;57.67;98104.03;4966144;28;20397;-73
2021/03/11 03:11:12;;;;;;;11.52;6.00;;;;;;;7.41;57.51;98100.91;4973112;28;20027;-72
2021/03/11 03:13:40;;;;;;;8.68;4.93;;;;;;;7.37;57.97;98102.34;4971265;28;20086;-72
2021/03/11 03:16:06;;;;;;;9.80;5.10;;;;;;;7.26;57.43;98074.16;4969589;28;20023;-72
2021/03/11 03:18:32;;;;;;;9.30;5.15;;;;;;;7.51;56.72;98092.47;4972849;28;20026;-72
2021/03/11 03:20:58;;;;;;;11.43;5.93;;;;;;;7.49;57.06;98076.50;4967332;28;20031;-72
2021/03/11 03:23:25;;;;;;;7.93;5.03;;;;;;;7.58;56.88;98085.25;4972807;28;20038;-73
2021/03/11 03:25:51;;;;;;;8.90;4.50;;;;;;;7.57;57.18;98072.81;4972794;28;20050;-73
2021/03/11 03:28:17;;;;;;;12.20;5.57;;;;;;;7.61;57.36;98063.31;4973085;28;20073;-73
2021/03/11 03:30:43;;;;;;;11.05;4.75;;;;;;;7.64;57.28;98081.75;4958821;28;20126;-73
2021/03/11 03:33:10;;;;;;;7.63;4.70;;;;;;;7.59;57.37;98079.66;4953631;29;20031;-72
2021/03/11 03:35:36;;;;;;;11.40;4.93;;;;;;;7.62;57.74;98073.88;4953765;28;20489;-72
2021/03/11 03:38:02;;;;;;;11.63;5.10;;;;;;;7.51;57.58;98050.22;4969713;28;20054;-72
2021/03/11 03:40:27;;;;;;;9.02;4.72;;;;;;;7.58;58.10;98056.47;4984501;28;20057;-72
2021/03/11 03:43:00;;;;;;;11.48;5.05;;;;;;;7.49;59.40;98060.34;4982347;28;20084;-72
2021/03/11 03:45:29;;;;;;;9.73;4.97;;;;;;;7.31;60.38;98041.25;4968849;28;20031;-73
2021/03/11 03:48:00;;;;;;;9.03;4.90;;;;;;;7.29;60.89;98054.91;4962749;28;20034;-72
2021/03/11 03:50:27;;;;;;;10.25;4.93;;;;;;;7.21;60.06;98039.78;4971829;28;20784;-74
2021/03/11 03:52:54;;;;;;;8.80;4.95;;;;;;;7.30;58.80;98055.75;4987523;28;20042;-73
2021/03/11 03:55:20;;;;;;;7.93;4.70;;;;;;;7.33;59.68;98058.03;4976393;28;20034;-73
2021/03/11 03:57:49;;;;;;;8.77;4.57;;;;;;;7.37;58.62;98053.91;4967167;28;20035;-73
2021/03/11 04:00:16;;;;;;;12.13;4.63;;;;;;;7.22;60.13;98029.84;4958267;28;20031;-73
2021/03/11 04:02:42;;;;;;;9.27;4.25;;;;;;;7.31;59.59;98049.31;4975292;28;20497;-73
2021/03/11 04:05:08;;;;;;;7.70;4.50;;;;;;;7.35;59.23;98048.72;4973235;28;20054;-73
2021/03/11 04:07:34;;;;;;;10.75;4.72;;;;;;;7.42;58.58;98046.06;4975844;28;20029;-73
2021/03/11 04:10:04;;;;;;;9.15;4.68;;;;;;;7.53;58.90;98053.56;4975457;28;20395;-72
2021/03/11 04:12:30;;;;;;;8.57;5.22;;;;;;;7.51;58.99;98058.31;4973461;28;20081;-73
2021/03/11 04:14:56;;;;;;;9.15;4.97;;;;;;;7.52;58.93;98059.97;4959996;28;20031;-72
2021/03/11 04:17:22;;;;;;;8.30;4.57;;;;;;;7.46;58.83;98041.94;4972473;28;20026;-73
2021/03/11 04:19:48;;;;;;;10.18;5.15;;;;;;;7.57;58.32;98035.13;4981274;28;20042;-73
2021/03/11 04:22:14;;;;;;;10.23;4.88;;;;;;;7.54;58.50;98039.06;4980718;28;20023;-72
2021/03/11 04:24:40;;;;;;;10.60;4.68;;;;;;;7.57;57.34;98027.91;4960600;28;20372;-73
2021/03/11 04:27:08;;;;;;;9.05;4.68;;;;;;;7.82;57.63;98027.31;4958128;28;20125;-73
2021/03/11 04:29:34;;;;;;;8.77;4.45;;;;;;;7.75;57.68;98018.41;4979256;28;20080;-73
2021/03/11 04:32:01;;;;;;;12.45;5.32;;;;;;;7.79;57.99;98025.88;4963510;28;20051;-72
2021/03/11 04:34:27;;;;;;;9.18;4.63;;;;;;;7.76;58.15;98022.75;4974208;28;20045;-72
2021/03/11 04:36:54;;;;;;;7.55;4.32;;;;;;;7.93;58.30;98017.81;4974282;28;20022;-72
2021/03/11 04:39:21;;;;;;;7.80;4.45;;;;;;;7.96;58.08;98020.09;4975342;28;20027;-73
2021/03/11 04:41:50;;;;;;;8.10;4.50;;;;;;;7.98;58.43;98016.16;4979154;28;20503;-72
2021/03/11 04:44:15;;;;;;;8.77;4.25;;;;;;;8.04;57.82;98027.94;4975120;28;20473;-73
2021/03/11 04:46:40;;;;;;;12.55;4.63;;;;;;;7.96;57.81;98009.31;4974506;28;20126;-73
2021/03/11 04:49:06;;;;;;;7.60;4.13;;;;;;;7.99;57.83;98004.34;4962435;28;20027;-73
2021/03/11 04:51:35;;;;;;;7.07;4.03;;;;;;;8.07;57.36;98016.78;4983963;28;20026;-73
2021/03/11 04:54:01;;;;;;;9.43;4.30;;;;;;;8.10;57.19;98027.16;4979303;28;20069;-73
2021/03/11 04:56:27;;;;;;;6.70;3.97;;;;;;;8.11;57.51;98013.47;4968945;28;20063;-73
2021/03/11 04:58:54;;;;;;;7.22;4.18;;;;;;;8.05;57.55;98011.59;4990122;28;20050;-76
2021/03/11 05:01:25;;;;;;;8.45;4.53;;;;;;;8.09;57.52;98025.47;4966464;28;20033;-75
2021/03/11 05:03:52;;;;;;;10.52;4.20;;;;;;;8.05;57.61;98025.06;4976064;28;20018;-74
2021/03/11 05:06:18;;;;;;;9.77;4.40;;;;;;;8.09;57.73;98028.16;4975747;28;20388;-77
2021/03/11 05:08:43;;;;;;;7.07;3.97;;;;;;;7.91;58.03;97996.44;4965966;28;20023;-77
2021/03/11 05:11:15;;;;;;;10.75;4.25;;;;;;;8.10;57.83;98035.22;4975892;28;20031;-78
2021/03/11 05:13:41;;;;;;;8.63;4.15;;;;;;;8.15;58.09;98026.50;4962141;28;20031;-74
2021/03/11 05:16:07;;;;;;;8.98;3.70;;;;;;;8.10;58.43;98021.75;4974576;28;20033;-72
2021/03/11 05:18:32;;;;;;;8.48;4.28;;;;;;;8.20;58.47;98005.16;4993235;28;20031;-72
2021/03/11 05:20:57;;;;;;;6.88;3.80;;;;;;;8.30;58.69;98024.44;4966671;28;20030;-70
2021/03/11 05:23:23;;;;;;;6.43;3.85;;;;;;;8.24;58.59;98017.19;4972031;28;20019;-70
2021/03/11 05:25:52;;;;;;;8.15;3.92;;;;;;;8.31;59.08;98023.41;4967113;28;20617;-74
2021/03/11 05:28:17;;;;;;;7.80;3.70;;;;;;;8.23;59.37;98008.28;4943925;29;20102;-71
2021/03/11 05:30:42;;;;;;;7.43;4.00;;;;;;;8.29;59.79;98017.41;4969605;28;20604;-72
2021/03/11 05:33:08;;;;;;;8.68;4.07;;;;;;;8.29;59.61;98020.91;4967625;28;20125;-74
2021/03/11 05:35:33;;;;;;;7.20;3.40;;;;;;;8.31;60.23;98012.63;4959080;28;20051;-73
2021/03/11 05:38:00;;;;;;;8.18;4.00;;;;;;;8.27;60.73;98008.69;4971484;28;20477;-74
2021/03/11 05:40:26;;;;;;;8.35;3.63;;;;;;;8.39;61.16;97998.97;4957846;28;20558;-74
2021/03/11 05:42:53;;;;;;;7.50;3.95;;;;;;;8.38;61.69;97988.38;4968369;28;20026;-74
2021/03/11 05:45:19;;;;;;;12.15;3.40;;;;;;;8.49;61.82;97996.69;4971841;28;20035;-72
2021/03/11 05:47:45;;;;;;;8.75;2.88;;;;;;;8.61;62.35;97996.84;4974046;28;20034;-72
2021/03/11 05:50:12;;;;;;;6.03;3.22;;;;;;;8.73;62.41;98002.44;4957457;28;20026;-72
2021/03/11 05:52:37;;;;;;;5.75;2.80;;;;;;;8.77;62.28;97996.41;4953767;28;20493;-70
2021/03/11 05:55:05;;;;;;;5.20;3.20;;;;;;;8.75;62.66;97990.41;4968633;28;20031;-72
2021/03/11 05:57:30;;;;;;;5.50;2.65;;;;;;;8.84;62.95;97979.38;4967586;28;20110;-72
2021/03/11 05:59:56;;;;;;;4.65;2.60;;;;;;;8.82;62.74;97982.28;4948111;28;20118;-73
2021/03/11 06:02:24;;;;;;;8.27;2.47;;;;;;;8.84;63.24;97985.59;4964237;28;20430;-71
2021/03/11 06:04:52;;;;;;;4.70;2.80;;;;;;;8.84;63.00;98000.97;4963105;28;20077;-72
2021/03/11 06:07:18;;;;;;;6.68;2.50;;;;;;;8.90;62.98;97987.44;4963418;28;20035;-72
2021/03/11 06:09:44;;;;;;;5.10;2.95;;;;;;;8.90;63.33;97982.03;4973229;28;20405;-70
2021/03/11 06:12:10;;;;;;;5.28;2.72;;;;;;;8.85;63.34;97948.66;4973443;28;20026;-72
2021/03/11 06:14:37;;;;;;;4.97;2.75;;;;;;;8.94;63.26;97956.31;4962932;28;20039;-70
2021/03/11 06:17:06;;;;;;;3.80;2.40;;;;;;;8.92;63.53;97953.00;4963472;28;20023;-71
2021/03/11 06:19:32;;;;;;;3.80;2.40;;;;;;;8.98;63.50;97960.22;4961133;28;20035;-73
2021/03/11 06:21:58;;;;;;;4.00;2.47;;;;;;;8.88;63.84;97948.22;4967298;28;20042;-71
2021/03/11 06:24:24;;;;;;;6.63;2.58;;;;;;;9.00;63.61;97960.03;4953759;28;20027;-71
2021/03/11 06:26:49;;;;;;;5.05;2.30;;;;;;;9.05;63.40;97960.22;4959102;28;20113;-71
2021/03/11 06:29:18;;;;;;;3.83;2.30;;;;;;;9.04;63.75;97963.09;4957508;28;20113;-70
2021/03/11 06:31:44;;;;;;;4.43;2.23;;;;;;;9.06;63.69;97956.47;4959394;28;20610;-70
2021/03/11 06:34:22;;;;;;;4.15;2.20;;;;;;;9.04;63.39;97941.53;4964852;28;20019;-70
2021/03/11 06:36:49;;;;;;;5.70;2.33;;;;;;;9.12;63.52;97955.63;4958477;28;20118;-68
2021/03/11 06:39:25;;;;;;;6.78;2.35;;;;;;;9.10;63.56;97944.22;4973265;28;20488;-72
2021/03/11 06:41:51;;;;;;;4.28;2.28;;;;;;;9.12;63.48;97952.09;4951547;28;20035;-74
2021/03/11 06:44:17;;;;;;;5.00;2.13;;;;;;;9.11;63.65;97940.44;4963158;28;20023;-75
2021/03/11 06:46:59;;;;;;;3.70;2.33;;;;;;;9.18;63.54;97941.25;4966906;28;20040;-76
2021/03/11 06:49:24;;;;;;;5.07;2.75;;;;;;;9.14;63.36;97936.50;4973288;28;20066;-71
2021/03/11 06:52:13;;;;;;;3.97;2.25;;;;;;;9.16;63.29;97934.41;4968729;28;20078;-75
2021/03/11 06:55:04;;;;;;;6.80;2.83;;;;;;;9.26;63.55;97936.66;4969485;28;20062;-74
2021/03/11 06:57:35;;;;;;;3.78;2.05;;;;;;;9.32;63.33;97942.00;4948120;28;20046;-72
2021/03/11 07:00:20;;;;;;;3.67;2.10;;;;;;;9.35;63.33;97943.44;4971811;28;20543;-75
2021/03/11 07:02:49;;;;;;;3.90;2.10;;;;;;;9.39;62.85;97923.91;4963561;28;20026;-73
2021/03/11 07:05:15;;;;;;;;;;;;;;;9.41;63.18;97938.00;4965839;28;20532;-73
2021/03/11 07:07:40;;;;;;;3.85;1.90;;;;;;;9.48;63.01;97931.72;4968909;28;20009;-73
2021/03/11 07:10:06;;;;;;;5.47;2.10;;;;;;;9.47;62.56;97897.69;4970076;28;20033;-74
2021/03/11 07:12:55;;;;;;;5.07;2.05;;;;;;;9.65;62.17;97924.78;4968586;28;20111;-71
2021/03/11 07:15:22;;;;;;;7.57;1.85;;;;;;;9.77;62.01;97917.63;4971863;28;20023;-72
2021/03/11 07:17:49;;;;;;;3.70;1.77;;;;;;;9.78;61.81;97918.44;4961831;28;20437;-72
2021/03/11 07:20:17;;;;;;;3.45;1.80;;;;;;;9.93;61.78;97912.69;4960105;28;20023;-73
2021/03/11 07:23:01;;;;;;;6.32;2.17;;;;;;;9.93;61.57;97901.88;4960983;28;20081;-73
2021/03/11 07:25:31;;;;;;;6.45;2.03;;;;;;;10.08;61.02;97905.06;4956631;28;20020;-71
2021/03/11 07:27:57;;;;;;;4.75;1.98;;;;;;;10.14;60.93;97903.34;4971418;28;20509;-71
2021/03/11 07:30:24;;;;;;;3.05;1.63;;;;;;;10.04;61.39;97906.59;4949488;28;20055;-71
2021/03/11 07:32:56;;;;;;;3.00;1.70;;;;;;;10.18;60.67;97905.41;4964242;28;20117;-72
2021/03/11 07:35:21;;;;;;;4.65;1.80;;;;;;;10.26;60.36;97921.31;4953937;28;20023;-74
2021/03/11 07:37:49;;;;;;;5.28;1.73;;;;;;;10.28;60.47;97913.03;4975175;28;20041;-71
2021/03/11 07:40:16;;;;;;;6.90;1.98;;;;;;;10.40;60.39;97907.69;4970629;28;20527;-70
2021/03/11 07:42:43;;;;;;;5.32;1.85;;;;;;;10.28;60.22;97894.94;4972788;28;20412;-72
2021/03/11 07:45:13;;;;;;;8.00;1.75;;;;;;;10.39;60.33;97925.00;4963621;28;21055;-72
2021/03/11 07:47:39;;;;;;;4.28;1.45;;;;;;;10.30;60.53;97902.84;4982589;28;20022;-72
2021/03/11 07:50:08;;;;;;;3.13;1.60;;;;;;;10.53;60.18;97923.78;4956577;28;20037;-72
2021/03/11 07:52:34;;;;;;;7.05;1.73;;;;;;;10.46;60.02;97913.06;4958688;28;20058;-72
2021/03/11 07:55:03;;;;;;;3.90;1.75;;;;;;;10.51;60.12;97909.69;4973584;28;20071;-72
2021/03/11 07:57:30;;;;;;;3.42;1.67;;;;;;;10.54;60.30;97917.34;4962759;28;20054;-74
2021/03/11 07:59:56;;;;;;;6.90;1.60;;;;;;;10.57;60.71;97903.38;4975334;28;20046;-74
2021/03/11 08:02:22;;;;;;;2.83;1.23;;;;;;;10.71;60.35;97904.03;4961410;28;20045;-74
2021/03/11 08:04:48;;;;;;;3.03;1.10;;;;;;;10.70;60.54;97905.09;4963742;28;20699;-74
2021/03/11 08:07:24;;;;;;;2.83;1.30;;;;;;;10.70;60.83;97914.03;4967467;28;20066;-74
2021/03/11 08:09:51;;;;;;;2.28;1.35;;;;;;;10.81;60.59;97919.75;4965171;28;20031;-74
2021/03/11 08:12:32;;;;;;;2.28;1.30;;;;;;;10.82;60.79;97918.69;4964051;28;20030;-72
2021/03/11 08:15:27;;;;;;;2.88;1.20;;;;;;;10.89;61.01;97916.72;4967633;28;20038;-74
2021/03/11 08:17:54;;;;;;;2.30;1.13;;;;;;;10.98;60.85;97899.13;4970852;28;20026;-74
2021/03/11 08:20:19;;;;;;;2.95;1.30;;;;;;;11.19;60.55;97906.75;4966416;28;20045;-73
2021/03/11 08:22:55;;;;;;;3.13;1.00;;;;;;;11.25;60.04;97905.00;4967579;28;20035;-71
2021/03/11 08:25:33;;;;;;;2.47;1.40;;;;;;;11.33;60.13;97901.16;4954841;28;20035;-72
2021/03/11 08:28:08;;;;;;;7.80;1.20;;;;;;;11.23;60.25;97890.03;4976324;28;20034;-70
2021/03/11 08:30:37;;;;;;;2.05;1.23;;;;;;;11.45;60.04;97906.59;4963111;28;20508;-74
2021/03/11 08:33:03;;;;;;;1.70;1.13;;;;;;;11.50;59.63;97891.31;4958735;28;20039;-72
2021/03/11 08:35:28;;;;;;;3.25;1.35;;;;;;;11.70;59.26;97879.34;4956426;28;20037;-73
2021/03/11 08:37:59;;;;;;;3.95;1.52;;;;;;;11.65;58.92;97841.28;4970742;28;20441;-73
2021/03/11 08:40:42;;;;;;;2.42;1.02;;;;;;;11.98;57.98;97849.69;4962188;28;20142;-73
2021/03/11 08:43:08;;;;;;;3.15;1.30;;;;;;;12.09;58.14;97839.09;4960836;28;20070;-72
2021/03/11 08:45:33;;;;;;;1.88;1.00;;;;;;;12.15;57.94;97866.06;4977362;28;20034;-74
2021/03/11 08:48:22;;;;;;;1.70;1.17;;;;;;;12.36;57.48;97869.25;4975400;28;20520;-72
2021/03/11 08:50:55;;;;;;;3.00;1.30;;;;;;;12.44;56.98;97845.31;4973816;28;20432;-72
2021/03/11 08:53:36;;;;;;;2.45;1.20;;;;;;;12.53;56.72;97848.47;4956360;28;20028;-71
2021/03/11 08:56:21;;;;;;;1.75;1.10;;;;;;;12.53;56.99;97845.75;4970991;28;20093;-72
2021/03/11 08:59:00;;;;;;;5.43;1.30;;;;;;;12.46;57.21;97858.63;5019423;23;20049;-72
2021/03/11 09:01:31;;;;;;;2.08;1.17;;;;;;;12.47;57.63;97857.53;5028116;28;20061;-73
2021/03/11 09:04:00;;;;;;;1.52;0.90;;;;;;;12.55;57.28;97887.03;5015225;28;20042;-72
2021/03/11 09:06:50;;;;;;;2.97;0.85;;;;;;;12.32;57.33;97860.75;5016554;28;20021;-73
2021/03/11 09:09:17;;;;;;;4.60;1.05;;;;;;;12.10;58.08;97838.00;4995398;28;20026;-73
2021/03/11 09:11:55;;;;;;;5.60;1.20;;;;;;;12.06;58.14;97843.91;4993919;28;20041;-72
2021/03/11 09:14:22;;;;;;;3.08;0.93;;;;;;;12.06;58.14;97860.19;5006330;28;20076;-73
2021/03/11 09:16:48;;;;;;;1.58;1.00;;;;;;;12.02;57.94;97860.88;5006080;28;20100;-72
2021/03/11 09:19:14;;;;;;;1.90;1.00;;;;;;;11.96;58.00;97851.81;5001195;28;20076;-73
2021/03/11 09:21:40;;;;;;;7.15;1.00;;;;;;;11.88;58.83;97857.59;5026147;28;20033;-71
2021/03/11 09:24:16;;;;;;;3.38;1.13;;;;;;;11.91;58.74;97851.69;5003466;28;20026;-71
2021/03/11 09:26:41;;;;;;;4.70;1.17;;;;;;;11.97;58.46;97847.22;5010296;28;20026;-73
2021/03/11 09:29:07;;;;;;;2.65;0.90;;;;;;;11.95;58.87;97850.19;5029688;28;20033;-71
2021/03/11 09:31:32;;;;;;;4.72;1.00;;;;;;;12.01;59.55;97859.25;5020585;28;20100;-71
2021/03/11 09:34:01;;;;;;;5.80;0.90;;;;;;;11.94;60.53;97864.78;5014745;28;20109;-70
2021/03/11 09:36:26;;;;;;;4.85;0.85;;;;;;;11.94;60.60;97850.41;5005961;28;20040;-74
2021/03/11 09:38:59;;;;;;;2.05;1.00;;;;;;;11.91;61.04;97850.88;5021418;28;20041;-71
2021/03/11 09:41:25;;;;;;;2.40;0.90;;;;;;;11.78;61.61;97841.88;5017551;28;20037;-75
2021/03/11 09:43:52;;;;;;;0.80;0.57;;;;;;;11.83;61.62;97849.31;5014993;28;20418;-72
2021/03/11 09:46:23;;;;;;;3.00;1.00;;;;;;;11.79;61.77;97842.72;5016446;28;20018;-72
2021/03/11 09:48:53;;;;;;;2.40;1.05;;;;;;;11.68;62.89;97848.94;4997990;28;20058;-72
2021/03/11 09:51:20;;;;;;;1.92;1.02;;;;;;;11.61;62.36;97822.78;5011016;28;20129;-73
2021/03/11 09:54:06;;;;;;;1.50;0.73;;;;;;;11.87;61.77;97822.56;5014921;28;20032;-74
2021/03/11 09:56:42;;;;;;;2.35;0.80;;;;;;;11.91;61.47;97823.78;5006438;28;20030;-75
2021/03/11 09:59:10;;;;;;;4.07;1.15;;;;;;;12.04;61.42;97813.50;5021351;28;20507;-74
2021/03/11 10:01:42;;;;;;;1.02;0.60;;;;;;;12.09;60.59;97801.13;5008387;28;20034;-75
2021/03/11 10:04:20;;;;;;;1.98;0.90;;;;;;;11.98;61.09;97806.31;5019242;28;20025;-77
2021/03/11 10:06:49;;;;;;;1.30;0.95;;;;;;;12.09;60.72;97810.09;5015080;28;20033;-76
2021/03/11 10:09:14;;;;;;;;;;;;;;;12.14;60.53;97801.25;5035851;28;20056;-74
2021/03/11 10:11:45;;;;;;;1.23;0.70;;;;;;;12.24;59.57;97779.78;5028346;28;20301;-74
2021/03/11 10:14:21;;;;;;;1.85;0.85;;;;;;;12.47;59.48;97787.84;4997594;28;20076;-77
2021/03/11 10:16:48;;;;;;;1.02;0.70;;;;;;;12.50;58.83;97779.22;5003869;28;20501;-74
2021/03/11 10:19:16;;;;;;;3.00;0.60;;;;;;;12.61;58.59;97799.25;5014734;28;20128;-74
2021/03/11 10:21:46;;;;;;;1.08;0.63;;;;;;;12.52;58.76;97795.25;5010095;28;20034;-72
2021/03/11 10:24:12;;;;;;;1.20;0.52;;;;;;;12.55;58.75;97773.09;5007583;28;20028;-75
2021/03/11 10:26:37;;;;;;;1.10;0.70;;;;;;;12.59;58.67;97795.13;5015898;28;20184;-74
2021/03/11 10:29:07;;;;;;;1.15;0.60;;;;;;;12.61;58.45;97791.09;5013977;28;20706;-74
2021/03/11 10:31:33;;;;;;;3.70;0.80;;;;;;;12.65;58.62;97792.28;5019731;28;20037;-74
2021/03/11 10:34:00;;;;;;;3.17;0.70;;;;;;;12.57;58.79;97778.25;5012864;28;20037;-75
2021/03/11 10:36:27;;;;;;;1.92;0.60;;;;;;;12.64;58.58;97765.38;5024439;28;20105;-74
2021/03/11 10:39:08;;;;;;;1.70;0.80;;;;;;;12.81;58.84;97779.81;5011131;28;20026;-74
2021/03/11 10:41:35;;;;;;;1.48;0.50;;;;;;;12.79;59.36;97781.94;5014225;28;20032;-71
2021/03/11 10:44:14;;;;;;;1.38;0.55;;;;;;;12.66;59.66;97793.09;5008727;28;20129;-75
2021/03/11 10:46:42;;;;;;;1.70;0.63;;;;;;;12.74;60.58;97787.28;5011401;28;20025;-74
2021/03/11 10:49:08;;;;;;;5.72;0.60;;;;;;;12.60;61.70;97794.03;5007232;28;20415;-75
2021/03/11 10:51:34;;;;;;;3.63;0.55;;;;;;;12.34;63.47;97804.41;5007964;28;20515;-74
2021/03/11 10:54:01;;;;;;;0.47;0.35;;;;;;;12.11;64.57;97796.31;5006805;28;20030;-76
2021/03/11 10:56:27;;;;;;;3.85;0.70;;;;;;;11.96;66.83;97803.03;5016274;28;20048;-75
2021/03/11 10:59:19;;;;;;;1.77;0.75;;;;;;;11.91;68.29;97810.22;5020869;28;20042;-73
2021/03/11 11:01:44;;;;;;;2.13;0.95;;;;;;;11.80;69.28;97809.94;5015898;28;20045;-73
2021/03/11 11:04:09;;;;;;;2.28;0.95;;;;;;;11.65;70.43;97793.31;5012574;28;20022;-73
2021/03/11 11:06:35;;;;;;;1.83;0.90;;;;;;;11.66;70.77;97810.41;5013875;28;20029;-73
2021/03/11 11:09:00;;;;;;;0.98;0.70;;;;;;;11.67;71.16;97815.59;5008594;28;20597;-73
2021/03/11 11:11:26;;;;;;;2.92;0.30;;;;;;;11.56;71.80;97805.59;5010405;28;20538;-75
2021/03/11 11:13:52;;;;;;;3.03;0.57;;;;;;;11.63;71.46;97809.00;5021911;28;20034;-75
2021/03/11 11:16:17;;;;;;;1.33;0.60;;;;;;;11.66;71.19;97794.16;5019633;28;20397;-77
2021/03/11 11:18:43;;;;;;;1.58;0.70;;;;;;;11.81;71.43;97802.63;5012016;28;20077;-76
2021/03/11 11:21:09;;;;;;;2.10;0.70;;;;;;;11.71;71.08;97792.41;5015422;28;20069;-74
2021/03/11 11:23:35;;;;;;;3.80;0.70;;;;;;;11.83;71.14;97803.22;4995923;28;20171;-74
2021/03/11 11:26:00;;;;;;;1.17;0.60;;;;;;;11.75;71.42;97803.59;5006729;28;20018;-74
2021/03/11 11:28:26;;;;;;;1.52;0.68;;;;;;;11.67;72.06;97785.78;5012249;28;20458;-74
2021/03/11 11:30:51;;;;;;;2.80;0.70;;;;;;;11.69;71.75;97791.00;5014023;28;20025;-74
2021/03/11 11:33:17;;;;;;;1.15;0.55;;;;;;;11.73;72.96;97787.56;5020080;28;20060;-74
2021/03/11 11:35:43;;;;;;;1.83;0.50;;;;;;;11.77;73.25;97793.34;5009175;28;20476;-74
2021/03/11 11:38:08;;;;;;;1.63;0.70;;;;;;;11.70;73.78;97781.78;5009492;28;20026;-74
2021/03/11 11:40:34;;;;;;;0.98;0.40;;;;;;;11.80;73.22;97768.47;5022876;28;20025;-74